createdAt,value
2022-09-12T00:01:19.754Z,1.45
2022-09-12T00:03:48.386Z,1.50
2022-09-12T00:06:22.816Z,1.23
2022-09-12T00:08:54.947Z,1.27
2022-09-12T00:11:23.174Z,1.33
2022-09-12T00:13:50.790Z,1.20
2022-09-12T00:16:22.500Z,1.17
2022-09-12T00:18:51.683Z,1.27
2022-09-12T00:21:20.877Z,1.50
2022-09-12T00:23:49.763Z,1.20
2022-09-12T00:26:18.871Z,1.23
2022-09-12T00:28:47.726Z,1.60
2022-09-12T00:31:21.065Z,1.27
2022-09-12T00:33:49.374Z,1.10
2022-09-12T00:36:22.961Z,1.33
2022-09-12T00:38:51.492Z,1.30
2022-09-12T00:41:25.517Z,1.30
2022-09-12T00:43:57.326Z,1.40
2022-09-12T00:46:39.975Z,1.30
2022-09-12T00:49:27.087Z,1.30
2022-09-12T00:52:01.295Z,1.25
2022-09-12T00:54:34.527Z,1.30
2022-09-12T00:57:06.779Z,1.90
2022-09-12T00:59:46.961Z,1.53
2022-09-12T01:02:15.398Z,1.05
2022-09-12T01:04:44.953Z,1.20
2022-09-12T01:07:13.620Z,1.67
2022-09-12T01:09:43.457Z,1.40
2022-09-12T01:12:14.561Z,1.40
2022-09-12T01:14:42.958Z,1.60
2022-09-12T01:17:17.208Z,2.20
2022-09-12T01:20:07.377Z,1.45
2022-09-12T01:22:44.968Z,1.50
2022-09-12T01:25:49.789Z,1.00
2022-09-12T01:28:42.209Z,1.52
2022-09-12T01:31:30.010Z,1.17
2022-09-12T01:34:00.709Z,1.42
2022-09-12T01:36:28.751Z,1.30
2022-09-12T01:39:11.437Z,1.67
2022-09-12T01:41:42.426Z,1.52
2022-09-12T01:44:23.453Z,1.40
2022-09-12T01:47:26.896Z,2.65
2022-09-12T01:50:09.494Z,1.50
2022-09-12T01:52:50.820Z,1.30
2022-09-12T01:55:27.478Z,1.60
2022-09-12T01:58:00.849Z,1.58
2022-09-12T02:00:28.858Z,1.55
2022-09-12T02:03:14.060Z,1.48
2022-09-12T02:05:48.466Z,1.87
2022-09-12T02:08:25.154Z,1.60
2022-09-12T02:11:04.074Z,1.40
2022-09-12T02:13:37.783Z,1.60
2022-09-12T02:16:41.445Z,1.55
2022-09-12T02:19:17.562Z,1.20
2022-09-12T02:21:51.222Z,1.20
2022-09-12T02:24:23.391Z,1.17
2022-09-12T02:26:57.221Z,1.27
2022-09-12T02:29:25.379Z,1.30
2022-09-12T02:32:01.123Z,1.57
2022-09-12T02:34:49.781Z,1.65
2022-09-12T02:37:42.761Z,1.90
2022-09-12T02:40:10.957Z,1.48
2022-09-12T02:42:38.854Z,1.58
2022-09-12T02:45:07.586Z,1.57
2022-09-12T02:47:45.650Z,1.55
2022-09-12T02:50:14.013Z,1.60
2022-09-12T02:52:44.092Z,1.20
2022-09-12T02:55:12.347Z,1.30
2022-09-12T02:57:40.225Z,1.40
2022-09-12T03:00:09.113Z,1.55
2022-09-12T03:03:07.437Z,2.15
2022-09-12T03:06:01.336Z,1.27
2022-09-12T03:08:54.208Z,1.50
2022-09-12T03:11:30.125Z,1.10
2022-09-12T03:14:06.889Z,1.50
2022-09-12T03:16:51.533Z,1.63
2022-09-12T03:19:57.605Z,1.60
2022-09-12T03:22:59.358Z,1.75
2022-09-12T03:25:47.428Z,1.70
2022-09-12T03:28:17.715Z,2.22
2022-09-12T03:30:47.726Z,1.33
2022-09-12T03:33:20.814Z,1.55
2022-09-12T03:35:55.337Z,1.65
2022-09-12T03:38:23.546Z,1.47
2022-09-12T03:40:54.682Z,1.70
2022-09-12T03:43:24.123Z,1.75
2022-09-12T03:45:54.443Z,1.67
2022-09-12T03:48:24.904Z,1.75
2022-09-12T03:50:54.037Z,1.67
2022-09-12T03:53:21.697Z,1.92
2022-09-12T03:55:50.748Z,1.60
2022-09-12T03:58:19.636Z,1.70
2022-09-12T04:00:48.438Z,1.98
2022-09-12T04:03:16.342Z,2.83
2022-09-12T04:05:44.374Z,1.35
2022-09-12T04:08:11.991Z,1.60
2022-09-12T04:10:40.134Z,1.73
2022-09-12T04:13:08.251Z,1.90
2022-09-12T04:15:36.364Z,1.50
2022-09-12T04:18:06.156Z,2.33
2022-09-12T04:20:34.351Z,1.95
2022-09-12T04:23:01.995Z,2.40
2022-09-12T04:25:31.706Z,1.88
2022-09-12T04:27:59.572Z,2.10
2022-09-12T04:30:27.495Z,2.10
2022-09-12T04:32:55.199Z,2.20
2022-09-12T04:35:23.400Z,1.60
2022-09-12T04:37:51.438Z,1.80
2022-09-12T04:40:19.824Z,1.80
2022-09-12T04:42:47.727Z,2.90
2022-09-12T04:45:17.013Z,1.98
2022-09-12T04:47:44.696Z,2.60
2022-09-12T04:50:12.895Z,2.33
2022-09-12T04:52:40.717Z,2.77
2022-09-12T04:55:09.789Z,2.50
2022-09-12T04:57:37.700Z,2.65
2022-09-12T05:00:07.375Z,2.70
2022-09-12T05:02:35.974Z,2.13
2022-09-12T05:05:04.932Z,1.63
2022-09-12T05:07:32.831Z,2.00
2022-09-12T05:10:00.907Z,1.80
2022-09-12T05:12:28.830Z,2.08
2022-09-12T05:14:56.584Z,2.20
2022-09-12T05:17:24.332Z,2.70
2022-09-12T05:19:52.514Z,2.90
2022-09-12T05:22:20.146Z,2.53
2022-09-12T05:24:50.668Z,2.17
2022-09-12T05:27:19.010Z,1.90
2022-09-12T05:29:46.862Z,2.00
2022-09-12T05:32:14.838Z,2.10
2022-09-12T05:34:42.771Z,1.80
2022-09-12T05:37:10.490Z,2.10
2022-09-12T05:39:38.187Z,1.80
2022-09-12T05:42:06.659Z,2.17
2022-09-12T05:44:34.379Z,2.40
2022-09-12T05:47:02.283Z,2.10
2022-09-12T05:49:30.526Z,2.45
2022-09-12T05:51:58.226Z,2.35
2022-09-12T05:54:30.820Z,2.63
2022-09-12T05:56:59.613Z,2.10
2022-09-12T05:59:28.835Z,2.05
2022-09-12T06:01:56.873Z,2.17
2022-09-12T06:04:25.773Z,2.03
2022-09-12T06:06:53.931Z,2.33
2022-09-12T06:09:21.762Z,2.65
2022-09-12T06:11:51.065Z,2.38
2022-09-12T06:14:21.091Z,3.10
2022-09-12T06:16:50.184Z,2.50
2022-09-12T06:19:20.472Z,2.60
2022-09-12T06:21:49.950Z,3.10
2022-09-12T06:24:19.232Z,2.97
2022-09-12T06:26:49.178Z,2.17
2022-09-12T06:29:17.152Z,2.70
2022-09-12T06:31:44.810Z,3.00
2022-09-12T06:34:15.157Z,2.40
2022-09-12T06:36:46.092Z,2.58
2022-09-12T06:39:16.859Z,2.50
2022-09-12T06:41:45.356Z,2.60
2022-09-12T06:44:16.334Z,2.50
2022-09-12T06:46:44.946Z,2.83
2022-09-12T06:49:12.734Z,2.80
2022-09-12T06:51:42.359Z,2.50
2022-09-12T06:54:14.149Z,3.67
2022-09-12T06:56:42.033Z,3.10
2022-09-12T06:59:09.923Z,3.33
2022-09-12T07:01:38.205Z,3.15
2022-09-12T07:04:06.216Z,3.22
2022-09-12T07:06:42.437Z,3.65
2022-09-12T07:09:13.724Z,2.87
2022-09-12T07:11:43.129Z,3.40
2022-09-12T07:14:14.237Z,3.13
2022-09-12T07:16:45.666Z,2.83
2022-09-12T07:19:13.842Z,3.22
2022-09-12T07:21:41.945Z,3.30
2022-09-12T07:24:11.148Z,3.17
2022-09-12T07:26:40.870Z,3.25
2022-09-12T07:29:36.071Z,2.47
2022-09-12T07:32:06.174Z,2.70
2022-09-12T07:34:34.767Z,3.97
2022-09-12T07:37:02.647Z,3.03
2022-09-12T07:39:30.703Z,2.92
2022-09-12T07:41:59.045Z,2.78
2022-09-12T07:44:27.592Z,2.80
2022-09-12T07:46:55.577Z,2.73
2022-09-12T07:49:23.591Z,3.05
2022-09-12T07:51:51.206Z,3.22
2022-09-12T07:54:19.578Z,3.50
2022-09-12T07:56:47.286Z,3.10
2022-09-12T07:59:29.985Z,3.47
2022-09-12T08:02:04.475Z,2.42
2022-09-12T08:04:32.143Z,2.70
2022-09-12T08:06:59.921Z,3.00
2022-09-12T08:09:27.887Z,2.90
2022-09-12T08:11:55.624Z,3.20
2022-09-12T08:14:23.484Z,2.72
2022-09-12T08:16:51.602Z,3.08
2022-09-12T08:19:19.918Z,2.80
2022-09-12T08:21:47.629Z,3.47
2022-09-12T08:24:16.665Z,3.20
2022-09-12T08:26:44.484Z,2.67
2022-09-12T08:29:12.357Z,2.80
2022-09-12T08:31:41.725Z,2.85
2022-09-12T08:34:09.832Z,2.70
2022-09-12T08:36:37.681Z,3.00
2022-09-12T08:39:07.450Z,2.90
2022-09-12T08:41:41.326Z,2.90
2022-09-12T08:44:46.742Z,2.35
2022-09-12T08:47:40.350Z,2.63
2022-09-12T08:50:15.128Z,3.40
2022-09-12T08:52:54.974Z,3.17
2022-09-12T08:55:25.890Z,2.90
2022-09-12T08:57:54.229Z,2.38
2022-09-12T09:00:22.216Z,2.53
2022-09-12T09:03:02.692Z,2.93
2022-09-12T09:05:50.215Z,2.40
2022-09-12T09:09:00.673Z,2.35
2022-09-12T09:12:07.314Z,2.92
2022-09-12T09:15:22.557Z,2.60
2022-09-12T09:18:00.637Z,2.30
2022-09-12T09:20:41.629Z,2.55
2022-09-12T09:23:26.254Z,2.28
2022-09-12T09:26:07.474Z,2.80
2022-09-12T09:28:59.611Z,2.58
2022-09-12T09:31:39.442Z,2.30
2022-09-12T09:34:19.522Z,2.58
2022-09-12T09:36:51.721Z,2.53
2022-09-12T09:39:39.791Z,2.78
2022-09-12T09:42:22.379Z,2.00
2022-09-12T09:44:53.912Z,2.57
2022-09-12T09:47:22.195Z,1.90
2022-09-12T09:49:49.913Z,1.70
2022-09-12T09:52:24.769Z,1.60
2022-09-12T09:54:58.724Z,2.20
2022-09-12T09:57:35.479Z,1.73
2022-09-12T10:00:22.927Z,1.95
2022-09-12T10:03:13.454Z,2.17
2022-09-12T10:05:50.816Z,1.98
2022-09-12T10:08:27.668Z,1.90
2022-09-12T10:11:17.952Z,2.30
2022-09-12T10:13:53.098Z,1.48
2022-09-12T10:16:29.161Z,1.90
2022-09-12T10:18:59.590Z,1.80
2022-09-12T10:21:32.725Z,1.85
2022-09-12T10:24:15.191Z,1.70
2022-09-12T10:26:56.446Z,3.15
2022-09-12T10:29:33.985Z,1.80
2022-09-12T10:32:06.603Z,2.95
2022-09-12T10:34:46.562Z,1.90
2022-09-12T10:37:24.930Z,1.73
2022-09-12T10:39:59.400Z,3.03
2022-09-12T10:42:53.697Z,2.25
2022-09-12T10:45:33.630Z,1.95
2022-09-12T10:48:29.906Z,1.80
2022-09-12T10:51:06.770Z,1.93
2022-09-12T10:53:48.533Z,1.95
2022-09-12T10:56:52.965Z,2.40
2022-09-12T10:59:53.384Z,1.83
2022-09-12T11:02:30.873Z,2.22
2022-09-12T11:05:22.558Z,1.77
2022-09-12T11:08:12.528Z,2.28
2022-09-12T11:11:07.789Z,2.15
2022-09-12T11:13:52.233Z,2.10
2022-09-12T11:16:48.294Z,2.13
2022-09-12T11:19:29.135Z,2.00
2022-09-12T11:22:34.508Z,2.10
2022-09-12T11:25:14.811Z,2.20
2022-09-12T11:28:02.245Z,2.03
2022-09-12T11:30:39.816Z,2.22
2022-09-12T11:33:29.282Z,2.33
2022-09-12T11:35:58.449Z,2.00
2022-09-12T11:38:39.095Z,1.70
2022-09-12T11:41:22.666Z,1.80
2022-09-12T11:44:05.821Z,2.22
2022-09-12T11:46:42.818Z,2.00
2022-09-12T11:49:14.426Z,1.80
2022-09-12T11:51:48.715Z,1.98
2022-09-12T11:54:33.345Z,1.67
2022-09-12T11:57:49.905Z,1.70
2022-09-12T12:00:39.812Z,1.40
2022-09-12T12:03:09.065Z,1.63
2022-09-12T12:05:49.132Z,1.73
2022-09-12T12:08:17.843Z,1.90
2022-09-12T12:11:03.344Z,1.38
2022-09-12T12:13:54.991Z,1.50
2022-09-12T12:16:31.543Z,1.65
2022-09-12T12:19:19.097Z,1.52
2022-09-12T12:21:50.636Z,1.80
2022-09-12T12:24:26.260Z,1.95
2022-09-12T12:27:19.435Z,1.60
2022-09-12T12:30:18.441Z,1.80
2022-09-12T12:33:06.588Z,2.17
2022-09-12T12:35:40.539Z,2.20
2022-09-12T12:38:29.385Z,2.05
2022-09-12T12:41:18.712Z,1.90
2022-09-12T12:43:51.980Z,2.95
2022-09-12T12:46:25.891Z,2.72
2022-09-12T12:49:19.365Z,2.60
2022-09-12T12:51:54.302Z,2.70
2022-09-12T12:54:32.034Z,2.43
2022-09-12T12:57:16.659Z,2.38
2022-09-12T12:59:58.637Z,2.38
2022-09-12T13:02:32.646Z,3.55
2022-09-12T13:05:06.462Z,2.97
2022-09-12T13:07:38.085Z,2.30
2022-09-12T13:10:08.274Z,2.03
2022-09-12T13:12:45.311Z,2.25
2022-09-12T13:15:36.632Z,2.08
2022-09-12T13:18:14.158Z,2.20
2022-09-12T13:20:51.993Z,2.30
2022-09-12T13:23:31.499Z,2.50
2022-09-12T13:26:01.991Z,2.38
2022-09-12T13:28:32.008Z,2.53
2022-09-12T13:31:17.033Z,2.10
2022-09-12T13:33:48.968Z,1.90
2022-09-12T13:36:42.311Z,2.00
2022-09-12T13:39:22.572Z,2.20
2022-09-12T13:42:32.592Z,2.05
2022-09-12T13:45:06.420Z,2.30
2022-09-12T13:47:58.749Z,1.73
2022-09-12T13:50:31.551Z,1.92
2022-09-12T13:53:03.091Z,1.67
2022-09-12T13:55:41.074Z,2.10
2022-09-12T13:58:21.640Z,1.80
2022-09-12T14:01:15.256Z,2.50
2022-09-12T14:04:16.152Z,1.98
2022-09-12T14:06:54.960Z,1.90
2022-09-12T14:09:42.855Z,2.00
2022-09-12T14:12:23.476Z,1.90
2022-09-12T14:14:52.811Z,2.13
2022-09-12T14:17:39.943Z,1.90
2022-09-12T14:20:14.517Z,2.97
2022-09-12T14:22:43.074Z,1.60
2022-09-12T14:25:16.934Z,1.98
2022-09-12T14:27:51.033Z,2.00
2022-09-12T14:30:30.976Z,2.00
2022-09-12T14:33:10.648Z,1.92
2022-09-12T14:35:43.585Z,2.08
2022-09-12T14:38:17.531Z,3.53
2022-09-12T14:40:53.383Z,2.43
2022-09-12T14:43:32.633Z,1.80
2022-09-12T14:46:03.938Z,2.45
2022-09-12T14:48:42.765Z,2.42
2022-09-12T14:51:29.075Z,2.83
2022-09-12T14:53:59.197Z,1.97
2022-09-12T14:56:43.688Z,2.05
2022-09-12T14:59:41.171Z,2.53
2022-09-12T15:02:32.536Z,1.60
2022-09-12T15:05:05.315Z,2.03
2022-09-12T15:07:39.334Z,1.77
2022-09-12T15:10:39.510Z,2.42
2022-09-12T15:13:15.040Z,2.33
2022-09-12T15:15:54.807Z,1.90
2022-09-12T15:18:25.034Z,1.67
2022-09-12T15:21:03.275Z,2.00
2022-09-12T15:23:38.576Z,2.35
2022-09-12T15:26:07.988Z,2.00
2022-09-12T15:28:36.360Z,1.85
2022-09-12T15:31:13.023Z,1.85
2022-09-12T15:33:41.259Z,1.90
2022-09-12T15:36:15.978Z,1.60
2022-09-12T15:38:45.441Z,2.10
2022-09-12T15:41:18.768Z,1.95
2022-09-12T15:43:48.019Z,1.98
2022-09-12T15:46:17.983Z,2.07
2022-09-12T15:48:47.858Z,1.70
2022-09-12T15:51:19.968Z,1.63
2022-09-12T15:53:49.276Z,2.42
2022-09-12T15:56:19.024Z,1.75
2022-09-12T15:58:58.133Z,1.67
2022-09-12T16:01:28.047Z,1.70
2022-09-12T16:03:56.195Z,1.95
2022-09-12T16:06:24.798Z,1.75
2022-09-12T16:08:52.650Z,1.83
2022-09-12T16:11:26.506Z,1.90
2022-09-12T16:13:55.758Z,1.70
2022-09-12T16:16:24.302Z,1.73
2022-09-12T16:18:54.782Z,1.40
2022-09-12T16:21:27.207Z,1.60
2022-09-12T16:23:57.195Z,1.70
2022-09-12T16:26:25.927Z,1.65
2022-09-12T16:28:59.248Z,1.80
2022-09-12T16:31:30.008Z,2.00
2022-09-12T16:33:58.020Z,1.50
2022-09-12T16:36:25.845Z,1.73
2022-09-12T16:38:55.131Z,1.88
2022-09-12T16:41:27.750Z,1.40
2022-09-12T16:43:56.247Z,1.95
2022-09-12T16:46:29.104Z,2.45
2022-09-12T16:48:59.017Z,2.17
2022-09-12T16:51:36.153Z,2.63
2022-09-12T16:54:04.429Z,2.33
2022-09-12T16:56:32.068Z,2.72
2022-09-12T16:58:59.929Z,1.75
2022-09-12T17:01:28.152Z,2.20
2022-09-12T17:03:57.819Z,2.30
2022-09-12T17:06:27.056Z,2.28
2022-09-12T17:09:01.072Z,2.28
2022-09-12T17:11:34.784Z,2.58
2022-09-12T17:14:07.094Z,2.97
2022-09-12T17:16:43.454Z,2.75
2022-09-12T17:19:18.229Z,2.13
2022-09-12T17:21:48.993Z,1.67
2022-09-12T17:24:18.555Z,2.58
2022-09-12T17:26:46.809Z,2.23
2022-09-12T17:29:16.215Z,2.28
2022-09-12T17:31:45.636Z,1.80
2022-09-12T17:34:14.777Z,2.00
2022-09-12T17:36:45.903Z,2.13
2022-09-12T17:39:16.187Z,2.23
2022-09-12T17:41:46.075Z,2.70
2022-09-12T17:44:15.407Z,1.83
2022-09-12T17:46:44.642Z,2.10
2022-09-12T17:49:15.772Z,1.85
2022-09-12T17:51:44.889Z,2.40
2022-09-12T17:54:18.175Z,2.00
2022-09-12T17:56:49.260Z,2.33
2022-09-12T17:59:20.012Z,2.22
2022-09-12T18:02:06.497Z,4.30
2022-09-12T18:04:34.663Z,5.60
2022-09-12T18:07:05.197Z,13.32
2022-09-12T18:09:36.659Z,17.65
2022-09-12T18:12:07.413Z,14.90
2022-09-12T18:14:38.385Z,12.10
2022-09-12T18:17:13.162Z,10.63
2022-09-12T18:19:44.919Z,10.05
2022-09-12T18:22:20.027Z,7.45
2022-09-12T18:24:51.466Z,7.10
2022-09-12T18:27:23.458Z,6.93
2022-09-12T18:30:17.275Z,5.40
2022-09-12T18:32:44.867Z,4.65
2022-09-12T18:35:15.325Z,3.30
2022-09-12T18:37:46.483Z,3.25
2022-09-12T18:40:15.345Z,2.78
2022-09-12T18:42:49.643Z,2.67
2022-09-12T18:45:20.115Z,2.13
2022-09-12T18:47:50.326Z,2.63
2022-09-12T18:50:23.900Z,2.10
2022-09-12T18:52:57.860Z,2.25
2022-09-12T18:55:33.376Z,2.13
2022-09-12T18:58:06.850Z,2.30
2022-09-12T19:00:41.964Z,2.10
2022-09-12T19:03:13.041Z,2.25
2022-09-12T19:05:47.645Z,2.08
2022-09-12T19:08:18.694Z,2.27
2022-09-12T19:10:57.530Z,2.40
2022-09-12T19:13:27.079Z,2.17
2022-09-12T19:16:02.470Z,2.03
2022-09-12T19:18:31.729Z,2.20
2022-09-12T19:21:04.631Z,2.10
2022-09-12T19:23:35.606Z,2.20
2022-09-12T19:26:06.963Z,2.33
2022-09-12T19:28:35.497Z,1.98
2022-09-12T19:31:08.656Z,2.35
2022-09-12T19:33:37.546Z,2.50
2022-09-12T19:36:27.319Z,1.80
2022-09-12T19:38:58.139Z,2.00
2022-09-12T19:41:27.175Z,2.22
2022-09-12T19:43:56.614Z,2.10
2022-09-12T19:46:26.280Z,2.47
2022-09-12T19:48:54.617Z,2.50
2022-09-12T19:51:24.210Z,2.25
2022-09-12T19:57:55.155Z,2.17
2022-09-12T20:00:23.702Z,2.20
2022-09-12T20:02:53.954Z,2.17
2022-09-12T20:05:22.549Z,2.38
2022-09-12T20:07:50.453Z,2.20
2022-09-12T20:10:18.362Z,2.10
2022-09-12T20:12:46.120Z,2.30
2022-09-12T20:15:14.209Z,2.35
2022-09-12T20:17:42.172Z,1.88
2022-09-12T20:20:11.007Z,1.92
2022-09-12T20:22:40.193Z,2.10
2022-09-12T20:25:08.583Z,2.13
2022-09-12T20:27:36.685Z,3.20
2022-09-12T20:30:05.148Z,2.78
2022-09-12T20:32:32.834Z,3.58
2022-09-12T20:35:00.723Z,3.28
2022-09-12T20:37:30.411Z,2.97
2022-09-12T20:39:58.141Z,2.70
2022-09-12T20:42:25.922Z,2.90
2022-09-12T20:44:54.025Z,3.00
2022-09-12T20:47:21.638Z,2.55
2022-09-12T20:49:49.396Z,2.57
2022-09-12T20:52:17.307Z,2.50
2022-09-12T20:54:45.050Z,2.33
2022-09-12T20:57:12.719Z,2.42
2022-09-12T20:59:42.799Z,2.60
2022-09-12T21:02:14.823Z,3.00
2022-09-12T21:04:43.042Z,3.28
2022-09-12T21:07:10.590Z,2.95
2022-09-12T21:09:38.347Z,2.70
2022-09-12T21:12:06.206Z,2.80
2022-09-12T21:14:33.859Z,2.20
2022-09-12T21:17:01.536Z,2.22
2022-09-12T21:19:29.544Z,2.33
2022-09-12T21:21:57.334Z,2.20
2022-09-12T21:24:25.021Z,2.50
2022-09-12T21:26:52.830Z,2.20
2022-09-12T21:29:20.987Z,2.17
2022-09-12T21:31:48.527Z,2.25
2022-09-12T21:34:16.391Z,2.00
2022-09-12T21:36:43.904Z,1.98
2022-09-12T21:39:11.628Z,2.00
2022-09-12T21:41:39.483Z,2.00
2022-09-12T21:44:07.950Z,2.33
2022-09-12T21:46:36.153Z,2.17
2022-09-12T21:49:04.252Z,2.47
2022-09-12T21:51:31.933Z,2.80
2022-09-12T21:53:59.632Z,2.60
2022-09-12T21:56:27.412Z,2.50
2022-09-12T21:58:55.128Z,2.50
2022-09-12T22:01:22.742Z,2.75
2022-09-12T22:03:50.663Z,3.10
2022-09-12T22:06:22.313Z,3.08
2022-09-12T22:08:50.241Z,2.97
2022-09-12T22:11:19.993Z,3.20
2022-09-12T22:13:47.830Z,3.10
2022-09-12T22:16:15.465Z,3.27
2022-09-12T22:18:43.362Z,3.80
2022-09-12T22:21:16.866Z,3.45
2022-09-12T22:24:03.238Z,3.08
2022-09-12T22:26:35.286Z,3.05
2022-09-12T22:29:03.622Z,3.20
2022-09-12T22:31:31.229Z,3.03
2022-09-12T22:33:59.246Z,3.22
2022-09-12T22:36:30.914Z,2.92
2022-09-12T22:39:00.300Z,3.35
2022-09-12T22:41:28.744Z,3.47
2022-09-12T22:43:57.369Z,3.50
2022-09-12T22:46:25.353Z,3.22
2022-09-12T22:48:53.221Z,3.03
2022-09-12T22:51:20.941Z,3.20
2022-09-12T22:53:48.736Z,3.70
2022-09-12T22:56:16.682Z,3.10
2022-09-12T22:58:44.299Z,3.05
2022-09-12T23:01:12.312Z,3.53
2022-09-12T23:03:40.409Z,2.92
2022-09-12T23:06:10.164Z,3.60
2022-09-12T23:08:39.715Z,3.15
2022-09-12T23:11:10.746Z,3.42
2022-09-12T23:13:39.326Z,2.80
2022-09-12T23:16:08.327Z,3.00
2022-09-12T23:18:36.529Z,3.73
2022-09-12T23:21:10.098Z,3.58
2022-09-12T23:23:39.410Z,3.53
2022-09-12T23:26:11.151Z,3.03
2022-09-12T23:28:40.611Z,2.95
2022-09-12T23:31:10.000Z,2.87
2022-09-12T23:33:37.955Z,2.95
2022-09-12T23:36:08.788Z,3.40
2022-09-12T23:38:36.653Z,3.10
2022-09-12T23:41:05.199Z,3.20
2022-09-12T23:43:33.289Z,2.80
2022-09-12T23:46:01.876Z,3.13
2022-09-12T23:48:29.927Z,3.30
2022-09-12T23:50:58.050Z,3.35
2022-09-12T23:53:26.538Z,3.13
2022-09-12T23:55:54.214Z,3.00
2022-09-12T23:58:23.022Z,3.10
